Currently 58°F in Hemet, California, USA
58°F
58°F / 58°F
calm
0.00"
Friday, December 15, 2017 9:11 PM PST

Hemet, California Weather Summary
Last 36 Hours

Temperature Winds Hourly Humidity Dewpoint
Time Report Norm Report Norm Max Gusts Precip. Rpt. Norm Rpt. Norm Pressure
1Fri 09:11 PM  57.6°F  50°F  calm  1 mph  none  0.00"  10%  55%  -1°F  34°F  30.17"
Fri 09:00 PM  57.6°F  50°F  calm  1 mph  none  0.00"  10%  55%  -1°F  34°F  30.17"
Fri 08:00 PM  57.6°F  51°F  calm  1 mph  none  0.00"  10%  55%  -1°F  34°F  30.17"
Fri 07:00 PM  57.6°F  52°F  calm  1 mph  none  0.00"  10%  54%  -1°F  35°F  30.17"
Fri 06:00 PM  57.6°F  53°F  calm  1 mph  none  0.00"  10%  52%  -1°F  35°F  30.17"
Fri 05:00 PM  57.6°F  56°F  calm  1 mph  none  0.00"  10%  48%  -1°F  36°F  30.17"
Fri 04:00 PM  57.6°F  60°F  calm  1 mph  none  0.00"  10%  42%  -1°F  37°F  30.17"
Fri 03:00 PM  57.6°F  62°F  calm  1 mph  none  0.00"  10%  39%  -1°F  36°F  30.17"
Fri 02:00 PM  57.6°F  62°F  calm  2 mph  none  0.00"  10%  39%  -1°F  36°F  30.17"
Fri 01:00 PM  57.6°F  62°F  calm  1 mph  none  0.00"  10%  40%  -1°F  36°F  30.17"
Fri 12:00 PM  57.6°F  60°F  calm  1 mph  none  0.00"  10%  42%  -1°F  36°F  30.17"
Fri 11:00 AM  57.6°F  58°F  calm  1 mph  none  0.00"  10%  46%  -1°F  36°F  30.17"
Fri 10:00 AM  57.6°F  56°F  calm  1 mph  none  0.00"  10%  49%  -1°F  36°F  30.17"
Fri 09:00 AM  57.6°F  54°F  calm  calm  none  0.00"  10%  51%  -1°F  35°F  30.17"
Fri 08:00 AM  57.6°F  49°F  calm  calm  none  0.00"  10%  54%  -1°F  33°F  30.17"
Fri 07:00 AM  57.6°F  47°F  calm  1 mph  none  0.00"  10%  55%  -1°F  31°F  30.17"
Fri 06:00 AM  57.6°F  47°F  calm  1 mph  none  0.00"  10%  55%  -1°F  31°F  30.17"
Fri 05:00 AM  57.6°F  47°F  calm  1 mph  none  0.00"  10%  55%  -1°F  31°F  30.17"
Fri 04:00 AM  57.6°F  47°F  calm  1 mph  none  0.00"  10%  56%  -1°F  31°F  30.17"
Fri 03:00 AM  57.6°F  47°F  calm  1 mph  none  0.00"  10%  56%  -1°F  32°F  30.17"
Fri 02:00 AM  57.6°F  48°F  calm  1 mph  none  0.00"  10%  56%  -1°F  32°F  30.17"
Fri 01:00 AM  57.6°F  48°F  calm  1 mph  none  0.00"  10%  56%  -1°F  32°F  30.17"
2Fri 12:00 AM  57.6°F  48°F  calm  1 mph  none  0.00"  10%  56%  -1°F  33°F  30.17"
Thu 11:00 PM  57.6°F  49°F  calm  1 mph  none  0.00"  10%  56%  -1°F  33°F  30.17"
Thu 10:01 PM  57.6°F  49°F  calm  1 mph  8 mph  0.00"  10%  55%  -1°F  33°F  30.17"
Thu 09:00 PM  58.6°F  50°F  calm  1 mph  5 mph  0.00"  10%  54%  0°F  33°F  30.15"
Thu 08:00 PM  62.1°F  51°F  3 mph E  1 mph  9 mph  0.00"  10%  54%  2°F  34°F  30.14"
Thu 07:00 PM  63.9°F  52°F  calm  1 mph  none  0.00"  6%  52%  -8°F  34°F  30.12"
Thu 06:00 PM  65.1°F  53°F  calm  1 mph  5 mph  0.00"  6%  51%  -7°F  35°F  30.10"
Thu 05:00 PM  68.5°F  56°F  2 mph E  1 mph  9 mph  0.00"  7%  47%  -1°F  35°F  30.08"
Thu 04:00 PM  77.7°F  61°F  5 mph W  1 mph  12 mph  0.00"  6%  41%  2°F  36°F  30.04"
Thu 03:00 PM  80.4°F  63°F  6 mph W  1 mph  14 mph  0.00"  3%  38%  -11°F  36°F  30.03"
Thu 02:00 PM  78.1°F  63°F  calm  2 mph  12 mph  0.00"  8%  38%  9°F  36°F  30.03"
Thu 01:00 PM  75.0°F  62°F  5 mph SW  1 mph  8 mph  0.00"  9%  39%  10°F  36°F  30.05"
Thu 12:00 PM  71.2°F  60°F  6 mph W  1 mph  8 mph  0.00"  10%  42%  9°F  36°F  30.06"
Thu 11:00 AM  68.4°F  58°F  calm  1 mph  none  0.00"  12%  45%  12°F  36°F  30.08"
Thu 10:00 AM  64.0°F  56°F  calm  1 mph  none  0.00"  14%  49%  12°F  36°F  30.08"

  1. Current weather data. No green row appears if the current weather data is also the high or low for the current day.
  2. High temperature for the current day.
  3. Low temperature for the current day.

The Hemet weather pages are a service of WeatherCurrents. Hemet, California is located in the San Jacinto Valley, in western Riverside County, at the foot of the San Jacinto mountains.
Copyright ©Fri Dec 15 21:12:05 PST 2017  WeatherCurrents. All rights reserved. - Submit questions and comments - Privacy Policy

This page automatically refreshes every 10 minutes.